Time;durP1;ratioP1;P1;durP2;ratioP2;P2;SDS_P1;SDS_P2;PMS_P1;PMS_P2;Temp;Humidity;BMP_temperature;BMP_pressure;BME280_temperature;BME280_humidity;BME280_pressure;Samples;Min_cycle;Max_cycle;Signal;HPM_P1;HPM_P2
2021/06/21 00:00:17;;;;;;;9.50;8.43;;;20.80;99.90;;;;;;6323436;28;20200;-71
2021/06/21 00:03:20;;;;;;;10.40;9.53;;;20.80;99.90;;;;;;6322277;28;20193;-71
2021/06/21 00:06:22;;;;;;;10.50;9.60;;;20.80;99.90;;;;;;6321495;28;20718;-71
2021/06/21 00:09:24;;;;;;;10.20;9.30;;;20.70;99.90;;;;;;6323458;28;20183;-71
2021/06/21 00:12:27;;;;;;;9.70;8.80;;;20.70;99.90;;;;;;6321246;28;20230;-71
2021/06/21 00:15:30;;;;;;;9.47;8.57;;;20.70;99.90;;;;;;6321755;28;20281;-71
2021/06/21 00:18:32;;;;;;;9.43;8.63;;;20.70;99.90;;;;;;6322886;28;20547;-71
2021/06/21 00:21:34;;;;;;;10.10;9.20;;;20.70;99.90;;;;;;6321312;28;20332;-71
2021/06/21 00:24:36;;;;;;;10.17;9.27;;;20.70;99.90;;;;;;6321800;28;20189;-71
2021/06/21 00:27:40;;;;;;;10.40;9.50;;;20.70;99.90;;;;;;6322396;28;20206;-71
2021/06/21 00:30:44;;;;;;;10.03;9.13;;;20.60;99.90;;;;;;6322894;28;20610;-71
2021/06/21 00:33:46;;;;;;;10.23;9.10;;;20.60;99.90;;;;;;6320769;28;20190;-71
2021/06/21 00:36:48;;;;;;;11.07;8.63;;;20.60;99.90;;;;;;6321191;28;20551;-71
2021/06/21 00:39:51;;;;;;;10.50;9.50;;;20.60;99.90;;;;;;6322461;28;20190;-71
2021/06/21 00:42:53;;;;;;;9.77;8.67;;;20.60;99.90;;;;;;6321981;28;20605;-71
2021/06/21 00:45:55;;;;;;;10.47;9.57;;;20.60;99.90;;;;;;6320170;28;20217;-71
2021/06/21 00:48:57;;;;;;;9.60;8.80;;;20.60;99.90;;;;;;6320484;28;20197;-71
2021/06/21 00:52:00;;;;;;;9.70;8.80;;;20.60;99.90;;;;;;6320986;28;20560;-71
2021/06/21 00:55:04;;;;;;;10.17;9.33;;;20.60;99.90;;;;;;6322101;28;20189;-71
2021/06/21 00:58:31;;;;;;;9.77;8.97;;;20.60;99.90;;;;;;6319888;28;20260;-71
2021/06/21 01:01:33;;;;;;;9.43;8.63;;;20.60;99.90;;;;;;6322056;28;20260;-71
2021/06/21 01:04:35;;;;;;;10.23;9.33;;;20.60;99.90;;;;;;6320168;28;20190;-71
2021/06/21 01:07:39;;;;;;;9.37;8.57;;;20.60;99.90;;;;;;6320549;28;20248;-71
2021/06/21 01:10:45;;;;;;;10.17;9.27;;;20.60;99.90;;;;;;6320331;28;20281;-71
2021/06/21 01:14:14;;;;;;;9.57;8.70;;;20.60;99.90;;;;;;6320372;28;20288;-71
2021/06/21 01:17:28;;;;;;;9.97;8.97;;;20.50;99.90;;;;;;6321791;28;20182;-71
2021/06/21 01:20:52;;;;;;;9.00;8.20;;;20.50;99.90;;;;;;6321428;28;20174;-71
2021/06/21 01:24:09;;;;;;;9.73;8.93;;;20.50;99.90;;;;;;6322281;28;20182;-71
2021/06/21 01:27:30;;;;;;;9.13;8.23;;;20.40;99.90;;;;;;6319546;28;20218;-71
2021/06/21 01:30:41;;;;;;;8.87;8.13;;;20.50;99.90;;;;;;6321478;28;20171;-71
2021/06/21 01:33:46;;;;;;;9.20;8.40;;;20.40;99.90;;;;;;6320793;28;20668;-71
2021/06/21 01:36:52;;;;;;;8.83;8.07;;;20.40;99.90;;;;;;6321242;28;20217;-71
2021/06/21 01:39:58;;;;;;;9.43;8.53;;;20.40;99.90;;;;;;6319878;28;20194;-71
2021/06/21 01:43:03;;;;;;;10.03;8.50;;;20.40;99.90;;;;;;6320641;28;20178;-71
2021/06/21 01:46:08;;;;;;;9.27;8.37;;;20.40;99.90;;;;;;6320791;28;20339;-71
2021/06/21 01:49:21;;;;;;;8.87;7.60;;;20.40;99.90;;;;;;6320437;28;20270;-71
2021/06/21 01:52:24;;;;;;;9.17;8.27;;;20.30;99.90;;;;;;6320955;28;20631;-71
2021/06/21 01:55:28;;;;;;;8.90;8.13;;;20.30;99.90;;;;;;6320283;28;20184;-71
2021/06/21 01:58:33;;;;;;;8.13;7.43;;;20.30;99.90;;;;;;6320353;28;20251;-71
2021/06/21 02:01:37;;;;;;;7.80;7.10;;;20.30;99.90;;;;;;6319405;28;20204;-71
2021/06/21 02:04:40;;;;;;;9.13;8.13;;;20.30;99.90;;;;;;6318838;28;20198;-71
2021/06/21 02:07:45;;;;;;;8.97;8.17;;;20.20;99.90;;;;;;6319211;28;20228;-71
2021/06/21 02:10:54;;;;;;;8.60;7.80;;;20.30;99.90;;;;;;6319786;28;20170;-71
2021/06/21 02:13:57;;;;;;;7.60;7.00;;;20.20;99.90;;;;;;6319235;28;20186;-71
2021/06/21 02:17:01;;;;;;;8.07;7.40;;;20.20;99.90;;;;;;6319086;28;20571;-71
2021/06/21 02:20:06;;;;;;;8.70;7.90;;;20.20;99.90;;;;;;6318561;28;20201;-71
2021/06/21 02:23:10;;;;;;;7.80;7.20;;;20.20;99.90;;;;;;6318934;28;20304;-71
2021/06/21 02:26:12;;;;;;;8.23;7.57;;;20.20;99.90;;;;;;6318270;28;20186;-71
2021/06/21 02:29:20;;;;;;;8.43;7.73;;;20.20;99.90;;;;;;6320394;28;20567;-71
2021/06/21 02:32:23;;;;;;;8.67;7.80;;;20.20;99.90;;;;;;6319811;28;20638;-71
2021/06/21 02:35:26;;;;;;;8.13;7.43;;;20.20;99.90;;;;;;6320095;28;20189;-71
2021/06/21 02:38:29;;;;;;;8.27;7.43;;;20.20;99.90;;;;;;6318431;28;20202;-71
2021/06/21 02:41:31;;;;;;;8.73;7.83;;;20.20;99.90;;;;;;6318246;28;20296;-71
2021/06/21 02:44:33;;;;;;;8.50;7.80;;;20.10;99.90;;;;;;6318751;28;20221;-71
2021/06/21 02:47:36;;;;;;;8.80;7.90;;;20.20;99.90;;;;;;6318135;28;20587;-71
2021/06/21 02:50:46;;;;;;;8.47;7.77;;;20.20;99.90;;;;;;6319974;28;20182;-71
2021/06/21 02:54:23;;;;;;;9.10;8.23;;;20.20;99.90;;;;;;6319763;28;20527;-71
2021/06/21 02:57:30;;;;;;;8.00;7.30;;;20.20;99.90;;;;;;6310231;28;20788;-71
2021/06/21 03:00:33;;;;;;;8.53;7.73;;;20.20;99.90;;;;;;6318645;28;20525;-71
2021/06/21 03:03:38;;;;;;;8.40;7.70;;;20.20;99.90;;;;;;6317770;28;20227;-71
2021/06/21 03:06:43;;;;;;;8.13;7.53;;;20.20;99.90;;;;;;6318301;28;20301;-71
2021/06/21 03:09:47;;;;;;;8.67;7.97;;;20.30;99.90;;;;;;6321395;28;20170;-71
2021/06/21 03:12:51;;;;;;;7.73;7.13;;;20.30;99.90;;;;;;6323179;28;20933;-71
2021/06/21 03:15:55;;;;;;;8.17;7.47;;;20.30;99.90;;;;;;6322760;28;20197;-71
2021/06/21 03:18:58;;;;;;;8.67;7.80;;;20.30;99.90;;;;;;6323698;28;20198;-71
2021/06/21 03:22:00;;;;;;;8.43;7.63;;;20.30;99.90;;;;;;6322785;28;20555;-71
2021/06/21 03:25:02;;;;;;;7.40;6.80;;;20.30;99.90;;;;;;6322400;28;20182;-71
2021/06/21 03:28:11;;;;;;;8.17;7.47;;;20.30;99.90;;;;;;6323678;28;20666;-71
2021/06/21 03:31:14;;;;;;;8.33;7.60;;;20.40;99.90;;;;;;6322029;28;20187;-71
2021/06/21 03:34:18;;;;;;;8.47;7.63;;;20.40;99.90;;;;;;6322393;28;20221;-71
2021/06/21 03:37:21;;;;;;;11.50;7.80;;;20.50;99.90;;;;;;6323453;28;20303;-71
2021/06/21 03:40:23;;;;;;;7.77;7.03;;;20.40;99.90;;;;;;6321809;28;20558;-71
2021/06/21 03:43:27;;;;;;;7.57;6.73;;;20.50;99.90;;;;;;6323610;28;20190;-71
2021/06/21 03:46:31;;;;;;;7.93;7.23;;;20.50;99.90;;;;;;6321790;28;20594;-71
2021/06/21 03:49:33;;;;;;;7.63;7.00;;;20.60;99.90;;;;;;6322101;28;20186;-71
2021/06/21 03:52:35;;;;;;;8.50;7.50;;;20.60;99.90;;;;;;6322302;28;20732;-71
2021/06/21 03:55:38;;;;;;;6.37;5.87;;;20.60;99.90;;;;;;6321586;28;20193;-71
2021/06/21 03:58:40;;;;;;;8.53;7.83;;;20.70;99.90;;;;;;6321596;28;20209;-71
2021/06/21 04:01:42;;;;;;;7.80;7.00;;;20.70;99.90;;;;;;6321569;28;20189;-71
2021/06/21 04:04:44;;;;;;;7.97;7.27;;;20.70;99.90;;;;;;6321777;28;20194;-71
2021/06/21 04:07:47;;;;;;;8.20;7.40;;;20.80;99.90;;;;;;6321559;28;20224;-71
2021/06/21 04:10:50;;;;;;;7.10;6.60;;;20.80;99.90;;;;;;6324318;28;20282;-71
2021/06/21 04:13:53;;;;;;;7.73;7.13;;;20.80;99.90;;;;;;6321976;28;20309;-71
2021/06/21 04:16:55;;;;;;;7.70;7.10;;;20.80;99.90;;;;;;6322310;28;20732;-71
2021/06/21 04:19:57;;;;;;;8.37;7.67;;;20.90;99.90;;;;;;6322574;28;20216;-71
2021/06/21 04:23:00;;;;;;;7.17;6.67;;;20.90;99.90;;;;;;6322258;28;20217;-71
2021/06/21 04:26:03;;;;;;;7.60;7.00;;;20.90;99.90;;;;;;6323149;28;20556;-71
2021/06/21 04:29:05;;;;;;;8.07;7.37;;;21.00;99.90;;;;;;6321073;28;20297;-71
2021/06/21 04:32:22;;;;;;;7.77;7.17;;;21.00;99.90;;;;;;6322131;28;20178;-71
2021/06/21 04:35:26;;;;;;;8.40;7.50;;;21.10;99.90;;;;;;6321083;28;20189;-71
2021/06/21 04:38:28;;;;;;;7.97;7.17;;;21.20;99.90;;;;;;6321684;28;20210;-71
2021/06/21 04:41:30;;;;;;;7.73;7.10;;;21.30;99.90;;;;;;6322377;28;20205;-71
2021/06/21 04:44:33;;;;;;;7.57;6.97;;;21.40;99.90;;;;;;6322145;28;20182;-71
2021/06/21 04:47:36;;;;;;;8.07;7.37;;;21.40;99.90;;;;;;6321869;28;20207;-71
2021/06/21 04:50:40;;;;;;;8.20;7.40;;;21.40;99.90;;;;;;6321909;28;20209;-71
2021/06/21 04:53:42;;;;;;;7.87;7.27;;;21.50;99.90;;;;;;6320392;28;20183;-71
2021/06/21 04:56:45;;;;;;;7.13;6.53;;;21.50;99.90;;;;;;6321801;28;20837;-71
2021/06/21 04:59:47;;;;;;;7.70;7.07;;;21.60;99.90;;;;;;6320274;28;20289;-71
2021/06/21 05:02:50;;;;;;;7.47;6.77;;;21.60;99.90;;;;;;6321235;28;20188;-71
2021/06/21 05:05:52;;;;;;;6.93;6.43;;;21.70;99.90;;;;;;6321752;28;20230;-71
2021/06/21 05:08:56;;;;;;;7.23;6.63;;;21.70;99.90;;;;;;6319661;28;20214;-71
2021/06/21 05:11:58;;;;;;;8.40;7.70;;;21.70;99.90;;;;;;6321200;28;20578;-71
2021/06/21 05:15:06;;;;;;;7.03;6.53;;;21.80;99.90;;;;;;6319692;28;20201;-71
2021/06/21 05:18:08;;;;;;;8.37;7.67;;;21.80;99.90;;;;;;6320085;28;20632;-71
2021/06/21 05:21:10;;;;;;;8.17;7.47;;;21.80;99.90;;;;;;6303620;28;20205;-71
2021/06/21 05:24:13;;;;;;;7.83;7.13;;;21.80;99.90;;;;;;6319569;28;20186;-71
2021/06/21 05:27:15;;;;;;;8.00;7.40;;;21.80;99.90;;;;;;6321122;28;20262;-71
2021/06/21 05:30:18;;;;;;;7.90;7.17;;;21.80;99.90;;;;;;6319292;28;20189;-71
2021/06/21 05:33:20;;;;;;;8.43;7.63;;;21.90;99.90;;;;;;6319282;28;20332;-71
2021/06/21 05:36:23;;;;;;;8.37;7.13;;;21.90;99.90;;;;;;6319717;28;20212;-71
2021/06/21 05:39:25;;;;;;;7.87;7.17;;;22.00;99.90;;;;;;6320238;28;20212;-71
2021/06/21 05:42:27;;;;;;;8.70;8.00;;;22.10;99.90;;;;;;6320847;28;20554;-71
2021/06/21 05:45:29;;;;;;;8.63;7.93;;;22.10;99.90;;;;;;6319048;28;20194;-71
2021/06/21 05:48:32;;;;;;;8.20;7.40;;;22.10;99.90;;;;;;6320389;28;20620;-71
2021/06/21 05:51:34;;;;;;;8.60;7.67;;;22.10;99.90;;;;;;6319379;28;20595;-71
2021/06/21 05:54:36;;;;;;;7.90;7.30;;;22.30;99.90;;;;;;6320036;28;20217;-71
2021/06/21 05:57:38;;;;;;;8.87;7.47;;;22.40;99.90;;;;;;6318910;28;20576;-71
2021/06/21 06:00:41;;;;;;;7.50;6.90;;;22.50;99.90;;;;;;6318753;28;20206;-71
2021/06/21 06:03:43;;;;;;;7.70;7.10;;;22.70;99.90;;;;;;6319002;28;20585;-71
2021/06/21 06:06:45;;;;;;;8.27;7.47;;;22.90;99.90;;;;;;6318271;28;20194;-71
2021/06/21 06:09:50;;;;;;;7.93;7.33;;;23.10;99.90;;;;;;6320083;28;20263;-71
2021/06/21 06:12:52;;;;;;;8.37;7.67;;;23.30;99.90;;;;;;6319934;28;20218;-71
2021/06/21 06:15:55;;;;;;;8.10;7.37;;;23.40;99.90;;;;;;6318132;28;20194;-71
2021/06/21 06:18:57;;;;;;;7.37;6.77;;;23.40;99.90;;;;;;6320553;28;20521;-71
2021/06/21 06:22:00;;;;;;;7.90;7.20;;;23.50;99.90;;;;;;6319320;28;20560;-71
2021/06/21 06:25:05;;;;;;;8.00;7.40;;;23.60;99.90;;;;;;6319966;28;20260;-71
2021/06/21 06:28:07;;;;;;;7.57;6.97;;;23.70;99.90;;;;;;6319587;28;20293;-71
2021/06/21 06:31:09;;;;;;;7.60;7.00;;;23.80;99.90;;;;;;6317904;28;20545;-71
2021/06/21 06:34:12;;;;;;;7.27;6.77;;;24.00;99.90;;;;;;6319743;28;20197;-71
2021/06/21 06:37:15;;;;;;;7.73;7.13;;;24.30;99.90;;;;;;6318033;28;20383;-71
2021/06/21 06:40:17;;;;;;;7.77;7.13;;;24.50;99.90;;;;;;6319011;28;20190;-71
2021/06/21 06:43:20;;;;;;;8.40;7.60;;;24.80;99.90;;;;;;6317896;28;20186;-71
2021/06/21 06:46:23;;;;;;;8.13;7.43;;;25.00;99.90;;;;;;6317755;28;20194;-71
2021/06/21 06:49:25;;;;;;;8.17;7.47;;;25.30;99.90;;;;;;6318053;28;20229;-71
2021/06/21 06:52:27;;;;;;;7.70;7.10;;;25.60;99.90;;;;;;6319120;28;20263;-71
2021/06/21 06:58:50;;;;;;;9.18;8.38;;;26.10;99.90;;;;;;6318737;28;20198;-71
2021/06/21 07:01:52;;;;;;;8.80;7.90;;;26.30;99.90;;;;;;6317942;28;20733;-71
2021/06/21 07:04:55;;;;;;;8.15;7.53;;;26.60;99.90;;;;;;6319362;28;20186;-71
2021/06/21 07:07:57;;;;;;;9.07;8.30;;;26.80;99.90;;;;;;6317546;28;20221;-71
2021/06/21 07:11:00;;;;;;;9.95;9.07;;;26.90;99.90;;;;;;6318042;28;20213;-71
2021/06/21 07:14:07;;;;;;;9.27;8.48;;;27.00;99.90;;;;;;6318816;28;20185;-71
2021/06/21 07:17:09;;;;;;;9.50;8.57;;;27.10;99.90;;;;;;6319240;28;20177;-71
2021/06/21 07:20:12;;;;;;;9.43;8.55;;;27.10;99.90;;;;;;6319189;28;20291;-71
2021/06/21 07:23:14;;;;;;;9.32;8.43;;;27.20;99.90;;;;;;6300880;28;20221;-71
2021/06/21 07:26:17;;;;;;;9.93;9.07;;;27.30;99.90;;;;;;6301112;28;20205;-71
2021/06/21 07:29:21;;;;;;;9.77;8.85;;;27.40;99.90;;;;;;6317131;28;20229;-71
2021/06/21 07:32:23;;;;;;;10.32;9.23;;;27.50;99.90;;;;;;6317824;28;20191;-71
2021/06/21 07:35:25;;;;;;;9.60;8.80;;;27.90;99.90;;;;;;6318725;28;20186;-71
2021/06/21 07:38:27;;;;;;;9.55;8.75;;;28.20;99.90;;;;;;6317927;28;20232;-71
2021/06/21 07:41:30;;;;;;;9.90;9.10;;;28.60;99.90;;;;;;6317786;28;20234;-71
2021/06/21 07:44:34;;;;;;;9.40;8.50;;;28.90;99.90;;;;;;6317242;28;20281;-71
2021/06/21 07:47:36;;;;;;;12.57;11.30;;;29.30;99.90;;;;;;6318811;28;20206;-71
2021/06/21 07:50:39;;;;;;;10.40;9.50;;;29.50;99.00;;;;;;6318421;28;20227;-71
2021/06/21 07:53:43;;;;;;;10.30;9.40;;;29.80;98.70;;;;;;6317689;28;20232;-71
2021/06/21 07:56:45;;;;;;;14.90;12.40;;;30.10;98.40;;;;;;6320785;28;20649;-71
2021/06/21 07:59:47;;;;;;;13.07;11.77;;;30.20;96.40;;;;;;6321512;28;20205;-71
2021/06/21 08:02:53;;;;;;;11.88;10.88;;;30.20;96.10;;;;;;6323244;28;20186;-71
2021/06/21 08:05:55;;;;;;;11.60;10.70;;;30.40;96.00;;;;;;6321630;28;20577;-71
2021/06/21 08:08:57;;;;;;;12.75;11.45;;;30.80;95.60;;;;;;6322922;28;20375;-71
2021/06/21 08:12:00;;;;;;;12.23;11.02;;;31.20;94.60;;;;;;6321536;28;20855;-71
2021/06/21 08:15:04;;;;;;;12.07;11.07;;;31.50;93.70;;;;;;6322439;28;20277;-71
2021/06/21 08:18:07;;;;;;;11.55;10.27;;;31.70;93.70;;;;;;6321723;28;20294;-71
2021/06/21 08:21:09;;;;;;;14.23;11.80;;;32.10;92.70;;;;;;6322426;28;20178;-71
2021/06/21 08:24:11;;;;;;;12.90;11.70;;;32.30;90.40;;;;;;6321425;28;20332;-71
2021/06/21 08:27:14;;;;;;;12.07;10.82;;;32.50;90.00;;;;;;6322070;28;20200;-71
2021/06/21 08:30:17;;;;;;;11.13;10.30;;;32.80;89.30;;;;;;6322536;28;20182;-71
2021/06/21 08:33:19;;;;;;;12.23;10.95;;;33.10;88.50;;;;;;6321316;28;20185;-71
2021/06/21 08:36:25;;;;;;;14.30;13.00;;;33.30;87.40;;;;;;6320649;28;20240;-71
2021/06/21 08:39:27;;;;;;;13.45;12.13;;;33.50;85.30;;;;;;6322921;28;20567;-71
2021/06/21 08:42:30;;;;;;;12.52;11.43;;;33.40;84.40;;;;;;6321100;28;20198;-71
2021/06/21 08:45:34;;;;;;;12.48;11.10;;;33.50;83.80;;;;;;6321521;28;20194;-71
2021/06/21 08:48:42;;;;;;;13.90;11.57;;;33.80;83.40;;;;;;6321073;28;20700;-71
2021/06/21 08:51:46;;;;;;;13.35;12.00;;;34.20;81.60;;;;;;6320816;28;20190;-71
2021/06/21 08:54:48;;;;;;;15.13;12.45;;;34.50;78.30;;;;;;6321472;28;20277;-71
2021/06/21 08:57:50;;;;;;;18.35;13.27;;;34.50;75.50;;;;;;6320478;28;20206;-71
2021/06/21 09:00:53;;;;;;;14.05;12.68;;;34.50;73.30;;;;;;6322448;28;20232;-71
2021/06/21 09:03:55;;;;;;;13.57;11.95;;;34.30;72.90;;;;;;6322407;28;20268;-71
2021/06/21 09:07:17;;;;;;;17.98;11.75;;;34.40;72.10;;;;;;6319752;28;20281;-71
2021/06/21 09:10:26;;;;;;;16.48;12.73;;;34.10;72.10;;;;;;6322243;28;20225;-71
2021/06/21 09:13:32;;;;;;;12.95;11.70;;;34.00;69.40;;;;;;6320253;28;20222;-71
2021/06/21 09:16:44;;;;;;;11.85;10.60;;;33.80;70.60;;;;;;6320769;28;20175;-71
2021/06/21 09:19:54;;;;;;;12.57;11.07;;;33.80;72.40;;;;;;6319814;28;20182;-71
2021/06/21 09:23:01;;;;;;;13.02;10.95;;;33.90;72.20;;;;;;6320139;28;20183;-71
2021/06/21 09:26:18;;;;;;;12.30;10.93;;;34.10;72.30;;;;;;6303424;28;20332;-71
2021/06/21 09:29:40;;;;;;;11.98;10.70;;;34.50;69.80;;;;;;6320609;28;20336;-71
2021/06/21 09:33:03;;;;;;;16.65;11.35;;;34.90;69.80;;;;;;6319760;28;20676;-71
2021/06/21 09:36:05;;;;;;;12.02;10.52;;;35.20;67.70;;;;;;6320540;28;20713;-71
2021/06/21 09:39:26;;;;;;;16.55;11.60;;;35.50;66.70;;;;;;6320813;28;20553;-71
2021/06/21 09:42:28;;;;;;;11.82;10.65;;;35.70;65.30;;;;;;6319272;28;20202;-71
2021/06/21 09:45:30;;;;;;;14.82;11.23;;;36.00;63.20;;;;;;6319802;28;20194;-71
2021/06/21 09:48:35;;;;;;;12.50;10.70;;;36.10;61.10;;;;;;6319196;28;20300;-71
2021/06/21 09:51:38;;;;;;;11.55;10.32;;;36.20;59.90;;;;;;6319827;28;20206;-72
2021/06/21 09:54:41;;;;;;;13.10;10.18;;;36.50;58.80;;;;;;6319300;28;20563;-72
2021/06/21 09:57:44;;;;;;;14.63;11.02;;;36.70;57.70;;;;;;6320132;28;20330;-72
2021/06/21 10:00:49;;;;;;;11.85;10.57;;;36.50;56.40;;;;;;6320431;28;20183;-71
2021/06/21 10:03:52;;;;;;;11.27;10.10;;;36.70;56.70;;;;;;6320172;28;20167;-71
2021/06/21 10:06:54;;;;;;;13.38;9.40;;;37.00;56.80;;;;;;6319105;28;20190;-71
2021/06/21 10:10:01;;;;;;;10.20;8.95;;;37.10;56.10;;;;;;6319928;28;20216;-71
2021/06/21 10:13:05;;;;;;;14.10;10.38;;;36.90;56.90;;;;;;6318394;28;20226;-71
2021/06/21 10:16:07;;;;;;;16.73;10.38;;;37.10;56.80;;;;;;6318849;28;20255;-71
2021/06/21 10:19:10;;;;;;;12.85;10.15;;;36.90;56.30;;;;;;6317414;28;20198;-71
2021/06/21 10:22:13;;;;;;;15.10;9.80;;;37.10;56.80;;;;;;6319878;28;20190;-71
2021/06/21 10:25:16;;;;;;;12.07;10.20;;;37.30;55.40;;;;;;6318752;28;20198;-71
2021/06/21 10:28:18;;;;;;;14.18;10.10;;;37.60;55.50;;;;;;6318044;28;20339;-71
2021/06/21 10:31:22;;;;;;;12.45;9.73;;;38.00;54.00;;;;;;6318149;28;20676;-71
2021/06/21 10:34:24;;;;;;;16.42;11.15;;;38.30;53.20;;;;;;6318530;28;20835;-71
2021/06/21 10:37:28;;;;;;;14.30;10.73;;;38.20;51.90;;;;;;6320040;28;20206;-71
2021/06/21 10:40:31;;;;;;;13.30;10.27;;;38.00;51.70;;;;;;6319270;28;20190;-71
2021/06/21 10:43:43;;;;;;;10.85;9.70;;;38.10;51.80;;;;;;6318415;28;20194;-71
2021/06/21 10:46:45;;;;;;;14.68;10.35;;;38.10;52.20;;;;;;6317925;28;20216;-71
2021/06/21 10:50:13;;;;;;;13.43;10.30;;;38.10;51.90;;;;;;6319480;28;20209;-71
2021/06/21 10:53:16;;;;;;;13.20;10.00;;;38.20;51.20;;;;;;6301659;28;20186;-71
2021/06/21 10:56:48;;;;;;;19.17;10.68;;;38.60;50.80;;;;;;6319835;28;20198;-71
2021/06/21 11:00:12;;;;;;;13.60;10.35;;;38.60;49.60;;;;;;6319342;28;20194;-71
2021/06/21 11:03:27;;;;;;;15.65;10.63;;;38.70;50.70;;;;;;6301258;28;20186;-71
2021/06/21 11:06:32;;;;;;;15.25;10.48;;;38.90;49.70;;;;;;6318045;28;20259;-71
2021/06/21 11:09:46;;;;;;;12.98;10.52;;;38.80;49.70;;;;;;6317998;28;20218;-71
2021/06/21 11:12:49;;;;;;;11.20;10.10;;;38.50;50.30;;;;;;6319337;28;20236;-71
2021/06/21 11:16:13;;;;;;;15.18;11.10;;;38.30;50.60;;;;;;6317664;28;20236;-71
2021/06/21 11:19:21;;;;;;;13.38;10.55;;;37.80;49.90;;;;;;6319492;28;20187;-71
2021/06/21 11:22:49;;;;;;;12.73;10.27;;;37.00;51.10;;;;;;6319263;28;20178;-71
2021/06/21 11:25:51;;;;;;;11.57;10.30;;;36.60;52.70;;;;;;6317562;28;20289;-71
2021/06/21 11:28:53;;;;;;;11.10;10.02;;;36.40;53.60;;;;;;6317794;28;20210;-71
2021/06/21 11:32:00;;;;;;;11.73;9.75;;;36.20;54.60;;;;;;6321566;28;20189;-71
2021/06/21 11:35:04;;;;;;;10.93;9.88;;;36.10;55.10;;;;;;6323865;28;20263;-71
2021/06/21 11:38:21;;;;;;;10.68;9.57;;;35.80;55.90;;;;;;6323490;28;20206;-71
2021/06/21 11:41:27;;;;;;;11.20;9.40;;;35.70;56.10;;;;;;6322947;28;20220;-71
2021/06/21 11:44:38;;;;;;;11.10;10.02;;;35.50;56.30;;;;;;6323762;28;20626;-71
2021/06/21 11:47:41;;;;;;;11.57;10.40;;;35.30;56.40;;;;;;6321993;28;20190;-71
2021/06/21 11:50:43;;;;;;;12.02;9.70;;;34.80;57.30;;;;;;6323298;28;20600;-71
2021/06/21 11:53:48;;;;;;;11.35;10.35;;;34.30;58.20;;;;;;6321556;28;20247;-71
2021/06/21 11:56:56;;;;;;;12.07;10.05;;;33.80;59.10;;;;;;6322258;28;20259;-71
2021/06/21 12:00:04;;;;;;;12.02;10.38;;;33.50;59.50;;;;;;6296999;28;20221;-71
2021/06/21 12:03:11;;;;;;;10.68;9.48;;;33.20;60.40;;;;;;6297045;28;20251;-71
2021/06/21 12:06:15;;;;;;;10.13;9.02;;;32.90;62.00;;;;;;6297939;28;20194;-71
2021/06/21 12:09:17;;;;;;;11.00;9.52;;;32.80;62.90;;;;;;6297475;28;20207;-71
2021/06/21 12:12:31;;;;;;;11.38;9.93;;;32.70;63.50;;;;;;6313478;28;21025;-71
2021/06/21 12:15:38;;;;;;;11.05;9.95;;;32.50;64.40;;;;;;6315985;28;20200;-71
2021/06/21 12:18:40;;;;;;;12.25;10.27;;;32.20;65.80;;;;;;6321327;28;20240;-71
2021/06/21 12:21:44;;;;;;;11.48;10.23;;;31.80;67.50;;;;;;6322940;28;20732;-71
2021/06/21 12:24:47;;;;;;;11.68;10.05;;;31.30;69.30;;;;;;6321131;28;20198;-71
2021/06/21 12:27:50;;;;;;;11.45;10.43;;;30.90;71.00;;;;;;6322632;28;20248;-71
2021/06/21 12:31:03;;;;;;;11.20;10.10;;;30.60;72.00;;;;;;6322025;28;20202;-71
2021/06/21 12:34:06;;;;;;;11.05;9.95;;;30.30;73.60;;;;;;6321084;28;20194;-71
2021/06/21 12:37:15;;;;;;;11.30;10.15;;;30.10;75.30;;;;;;6322062;28;20209;-71
2021/06/21 12:40:20;;;;;;;10.95;9.98;;;30.00;76.40;;;;;;6321314;28;20209;-71
2021/06/21 12:43:23;;;;;;;11.50;10.30;;;29.80;77.10;;;;;;6320059;28;20201;-71
2021/06/21 12:46:29;;;;;;;12.20;10.98;;;29.50;78.20;;;;;;6321879;28;20201;-71
2021/06/21 12:49:31;;;;;;;11.77;10.02;;;29.30;81.40;;;;;;6321985;28;20240;-71
2021/06/21 12:52:34;;;;;;;11.48;10.40;;;29.10;81.80;;;;;;6320487;28;20220;-71
2021/06/21 12:55:36;;;;;;;11.93;10.73;;;29.20;81.50;;;;;;6320720;28;20208;-71
2021/06/21 12:58:38;;;;;;;11.10;10.00;;;29.30;81.80;;;;;;6321688;28;20202;-71
2021/06/21 13:01:45;;;;;;;11.50;10.50;;;29.40;82.30;;;;;;6320121;28;20592;-71
2021/06/21 13:05:03;;;;;;;15.18;10.68;;;29.60;82.10;;;;;;6320565;28;20200;-71
2021/06/21 13:08:06;;;;;;;11.75;10.48;;;29.80;81.70;;;;;;6320174;28;20202;-71
2021/06/21 13:11:14;;;;;;;11.80;10.60;;;29.60;81.80;;;;;;6321188;28;20206;-71
2021/06/21 13:14:18;;;;;;;13.70;10.73;;;29.50;82.80;;;;;;6321179;28;20185;-71
2021/06/21 13:17:26;;;;;;;11.45;10.35;;;29.50;83.80;;;;;;6320281;28;20760;-71
2021/06/21 13:20:28;;;;;;;11.93;10.80;;;29.50;84.10;;;;;;6320375;28;20542;-71
2021/06/21 13:23:49;;;;;;;11.13;9.98;;;29.40;84.80;;;;;;6319523;28;20625;-71
2021/06/21 13:26:51;;;;;;;11.30;10.20;;;29.40;85.70;;;;;;6320072;28;20650;-71
2021/06/21 13:29:59;;;;;;;12.27;11.18;;;29.40;86.50;;;;;;6294211;28;20623;-71
2021/06/21 13:33:10;;;;;;;11.98;10.82;;;29.50;87.20;;;;;;6311580;28;20213;-71
2021/06/21 13:36:12;;;;;;;11.52;10.27;;;29.40;88.00;;;;;;6294788;28;20420;-71
2021/06/21 13:39:16;;;;;;;12.13;10.63;;;29.40;88.70;;;;;;6295560;28;20217;-71
2021/06/21 13:42:29;;;;;;;12.02;10.85;;;29.30;89.40;;;;;;6295949;28;20213;-71
2021/06/21 13:45:34;;;;;;;11.70;10.10;;;29.10;90.50;;;;;;6294001;28;20278;-71
2021/06/21 13:48:37;;;;;;;12.40;11.15;;;29.00;91.00;;;;;;6294143;28;20175;-71
2021/06/21 13:51:55;;;;;;;12.23;11.13;;;29.10;91.30;;;;;;6293962;28;20256;-71
2021/06/21 13:54:57;;;;;;;12.55;11.25;;;29.00;91.40;;;;;;6294199;28;20168;-71
2021/06/21 13:57:59;;;;;;;13.85;11.30;;;29.00;91.70;;;;;;6287472;28;20281;-71
2021/06/21 14:01:18;;;;;;;13.38;11.13;;;29.00;92.40;;;;;;6318492;28;20213;-71
2021/06/21 14:04:21;;;;;;;13.45;10.43;;;29.00;93.10;;;;;;6319263;28;20247;-71
2021/06/21 14:07:24;;;;;;;12.23;10.90;;;28.90;93.40;;;;;;6319913;28;20634;-71
2021/06/21 14:10:26;;;;;;;12.38;11.07;;;29.00;93.70;;;;;;6320071;28;20229;-71
2021/06/21 14:13:28;;;;;;;12.25;11.05;;;29.10;94.30;;;;;;6318109;28;20600;-71
2021/06/21 14:16:30;;;;;;;12.70;10.82;;;29.30;94.30;;;;;;6320144;28;20201;-71
2021/06/21 14:19:33;;;;;;;13.90;12.70;;;29.60;94.20;;;;;;6318722;28;20193;-71
2021/06/21 14:22:35;;;;;;;12.25;11.13;;;30.20;93.50;;;;;;6318380;28;20651;-71
2021/06/21 14:25:39;;;;;;;12.75;11.43;;;30.70;92.50;;;;;;6318848;28;20556;-71
2021/06/21 14:28:42;;;;;;;12.45;11.30;;;31.20;91.60;;;;;;6317770;28;20206;-71
2021/06/21 14:31:44;;;;;;;12.60;11.23;;;31.60;90.90;;;;;;6318646;28;20285;-71
2021/06/21 14:34:46;;;;;;;13.30;11.93;;;32.10;90.80;;;;;;6318658;28;20177;-71
2021/06/21 14:37:49;;;;;;;14.57;11.68;;;32.90;89.20;;;;;;6319478;28;20205;-71
2021/06/21 14:40:54;;;;;;;17.70;13.52;;;34.10;84.50;;;;;;6318395;28;20604;-71
2021/06/21 14:43:56;;;;;;;13.82;12.35;;;35.30;74.60;;;;;;6301225;28;20194;-71
2021/06/21 14:46:58;;;;;;;16.15;11.63;;;36.40;67.40;;;;;;6318387;28;20686;-71
2021/06/21 14:53:09;;;;;;;16.92;11.73;;;38.10;56.90;;;;;;6319359;28;20174;-71
2021/06/21 14:56:11;;;;;;;13.88;11.05;;;38.60;55.10;;;;;;6318276;28;20201;-71
2021/06/21 14:59:14;;;;;;;12.35;11.15;;;39.30;53.00;;;;;;6317626;28;20198;-71
2021/06/21 15:02:16;;;;;;;19.00;12.43;;;39.90;51.00;;;;;;6318386;28;20186;-71
2021/06/21 15:05:20;;;;;;;16.00;12.25;;;40.10;49.60;;;;;;6320530;28;20216;-71
2021/06/21 15:08:23;;;;;;;13.27;11.85;;;40.00;49.40;;;;;;6323600;28;20274;-71
2021/06/21 15:11:26;;;;;;;15.48;11.35;;;39.50;49.80;;;;;;6324146;28;20237;-71
2021/06/21 15:14:28;;;;;;;13.30;11.98;;;39.00;51.90;;;;;;6322785;28;20182;-71
2021/06/21 15:17:31;;;;;;;12.05;10.88;;;38.60;52.80;;;;;;6324464;28;20228;-71
2021/06/21 15:20:36;;;;;;;14.77;10.95;;;38.00;53.70;;;;;;6323930;28;20213;-71
2021/06/21 15:23:38;;;;;;;13.80;10.63;;;37.40;55.80;;;;;;6324159;28;20171;-71
2021/06/21 15:26:41;;;;;;;12.27;10.27;;;36.90;57.30;;;;;;6324301;28;20732;-71
2021/06/21 15:29:43;;;;;;;12.05;10.88;;;36.40;58.50;;;;;;6322168;28;20239;-71
2021/06/21 15:32:47;;;;;;;13.80;10.65;;;35.90;59.30;;;;;;6324198;28;20259;-72
2021/06/21 15:35:50;;;;;;;11.32;10.13;;;35.40;60.60;;;;;;6323480;28;20193;-72
2021/06/21 15:38:52;;;;;;;13.02;10.90;;;35.00;62.50;;;;;;6325088;28;20192;-72
2021/06/21 15:41:55;;;;;;;14.98;10.98;;;34.60;63.50;;;;;;6323827;28;20190;-72
2021/06/21 15:44:57;;;;;;;12.70;11.30;;;34.30;64.70;;;;;;6325172;28;20269;-71
2021/06/21 15:48:00;;;;;;;14.20;11.00;;;34.20;65.40;;;;;;6325759;28;20232;-72
2021/06/21 15:51:06;;;;;;;15.48;11.52;;;34.60;65.70;;;;;;6325252;28;20232;-71
2021/06/21 15:54:08;;;;;;;15.18;11.48;;;35.30;63.50;;;;;;6326430;28;20174;-71